Date,TemperatureHighF,TemperatureAvgF,TemperatureLowF,DewpointHighF,DewpointAvgF,DewpointLowF,HumidityHigh,HumidityAvg,HumidityLow,PressureMaxIn,PressureMinIn,WindSpeedMaxMPH,WindSpeedAvgMPH,GustSpeedMaxMPH,PrecipitationSumIn
2013-6-1,93.7,84.2,72.0,68.7,64.6,61.7,75,53,38,25.52,25.52,0,-999,0,0.00
2013-6-2,88.3,80.3,73.4,71.4,66.8,62.1,87,62,47,29.89,25.52,0,-999,0,0.54
2013-6-3,87.8,75.8,69.1,70.5,68.1,57.7,91,77,53,29.95,29.80,0,-999,0,0.91
2013-6-4,82.2,72.9,63.5,59.0,48.0,42.8,64,43,30,30.16,29.95,0,-999,0,0.00
2013-6-5,84.2,73.2,60.8,58.3,52.4,47.7,73,50,33,30.22,30.07,0,-999,0,0.00
2013-6-6,76.6,70.6,65.7,65.5,59.4,51.1,89,67,51,30.10,29.89,0,-999,0,0.41
2013-6-7,72.3,70.3,68.0,71.1,68.9,66.0,96,92,87,29.83,29.57,0,-999,0,2.53
2013-6-8,84.7,74.4,67.5,67.1,61.9,54.5,90,69,42,30.10,29.68,0,-999,0,0.00
2013-6-9,87.6,77.1,68.2,70.2,65.8,58.3,87,70,47,30.22,30.10,0,-999,0,0.00
2013-6-10,82.4,74.6,70.9,76.3,71.9,67.1,95,90,77,30.13,29.77,0,-999,0,3.57
2013-6-11,88.2,77.8,68.0,70.7,65.3,59.7,95,68,44,29.86,29.77,0,-999,0,0.00
2013-6-12,94.8,83.8,72.1,72.3,63.9,58.5,74,53,34,29.86,29.77,0,-999,0,0.00
2013-6-13,90.0,78.4,32.0,74.5,66.4,55.9,91,66,43,29.80,29.42,0,-999,0,0.00
2013-6-14,81.9,73.3,63.7,58.3,52.4,47.5,76,49,34,29.98,29.57,0,-999,0,0.00
2013-6-15,88.7,77.9,66.6,59.9,54.9,50.5,66,46,31,30.10,29.98,0,-999,0,0.00
2013-6-16,88.0,78.2,69.1,68.0,63.7,59.5,78,62,43,30.04,29.86,0,-999,0,0.00
2013-6-17,90.7,81.8,74.3,72.5,68.4,64.9,78,64,47,29.98,29.86,0,-999,0,0.00
2013-6-18,80.1,74.5,68.5,72.9,69.6,66.2,88,82,69,29.92,29.80,0,-999,0,0.21
2013-6-19,80.6,72.4,67.6,66.6,62.8,59.2,89,73,56,30.19,29.89,0,-999,0,0.00
2013-6-20,82.9,73.2,64.8,64.4,52.5,38.3,91,53,20,30.83,30.19,13,-474,13,0.00
2013-6-21,88.0,67.5,65.8,60.6,43.8,30.4,73,36,12,30.89,30.26,9,-9,10,0.00
2013-6-22,89.4,78.6,66.6,64.8,55.1,45.1,92,49,20,30.29,30.14,13,-2,14,0.00
2013-6-23,88.2,78.2,71.8,73.4,64.4,55.6,98,64,30,30.20,30.08,10,-8,10,0.91
2013-6-24,96.4,81.9,74.5,73.6,64.2,45.9,97,60,17,30.14,30.02,13,-17,15,0.00
2013-6-25,96.1,85.1,72.5,73.0,65.1,51.4,87,55,22,30.05,29.86,16,3,19,0.08
2013-6-26,93.6,82.5,72.9,75.6,69.5,66.7,85,65,45,29.93,29.66,12,3,12,0.08
2013-6-27,84.6,76.5,72.1,74.7,71.2,67.8,91,82,69,29.81,29.58,15,3,15,0.04
2013-6-28,90.5,77.7,72.3,72.9,70.8,62.1,93,79,49,29.60,29.45,36,1,36,3.00
2013-6-29,93.0,81.3,69.4,73.0,66.5,59.2,96,66,36,29.66,29.28,11,2,12,0.00
2013-6-30,90.9,81.6,32.0,77.0,73.7,70.3,91,78,59,29.84,29.66,11,2,11,0.00